Time;durP1;ratioP1;P1;durP2;ratioP2;P2;SDS_P1;SDS_P2;PMS_P1;PMS_P2;Temp;Humidity;BMP_temperature;BMP_pressure;BME280_temperature;BME280_humidity;BME280_pressure;Samples;Min_cycle;Max_cycle;Signal;HPM_P1;HPM_P2
2020/12/08 00:00:46;;;;;;;4.20;2.00;;;6.00;82.30;;;;;;5056809;28;20478;-65
2020/12/08 00:03:12;;;;;;;3.37;1.80;;;6.00;82.60;;;;;;5057094;28;20119;-65
2020/12/08 00:05:37;;;;;;;3.63;1.70;;;6.00;82.50;;;;;;5056757;28;20501;-68
2020/12/08 00:08:05;;;;;;;4.17;1.83;;;6.00;82.00;;;;;;5056846;28;20480;-64
2020/12/08 00:10:31;;;;;;;3.63;1.57;;;6.00;81.40;;;;;;5056716;28;20039;-65
2020/12/08 00:12:56;;;;;;;3.20;1.77;;;6.00;81.60;;;;;;5056752;28;20021;-65
2020/12/08 00:15:22;;;;;;;4.27;1.40;;;6.00;81.70;;;;;;5056666;28;20102;-65
2020/12/08 00:17:48;;;;;;;3.20;1.50;;;6.00;82.40;;;;;;5056581;28;20497;-64
2020/12/08 00:20:18;;;;;;;2.27;1.23;;;6.00;81.90;;;;;;5056266;28;20104;-65
2020/12/08 00:22:44;;;;;;;1.73;1.00;;;6.00;82.10;;;;;;5056782;28;20465;-65
2020/12/08 00:25:11;;;;;;;4.47;1.37;;;6.00;82.30;;;;;;5056276;28;20075;-64
2020/12/08 00:27:37;;;;;;;3.70;1.40;;;6.00;82.80;;;;;;5056226;28;20059;-64
2020/12/08 00:30:15;;;;;;;4.63;1.67;;;6.00;83.00;;;;;;5056446;28;20037;-65
2020/12/08 00:32:42;;;;;;;5.83;2.60;;;6.00;82.80;;;;;;5056526;28;20032;-65
2020/12/08 00:35:13;;;;;;;6.53;3.40;;;5.90;81.30;;;;;;5056474;28;20029;-64
2020/12/08 00:37:43;;;;;;;8.80;3.70;;;5.80;81.60;;;;;;5056255;28;20067;-64
2020/12/08 00:40:09;;;;;;;4.87;3.10;;;5.80;82.60;;;;;;5056278;28;20112;-64
2020/12/08 00:42:39;;;;;;;5.20;3.50;;;5.70;82.90;;;;;;5056239;28;20436;-64
2020/12/08 00:45:06;;;;;;;7.07;4.43;;;5.70;82.90;;;;;;5055755;28;20037;-65
2020/12/08 00:47:32;;;;;;;7.53;4.57;;;5.60;82.30;;;;;;5056068;28;20104;-64
2020/12/08 00:49:57;;;;;;;6.77;4.30;;;5.60;82.70;;;;;;5056177;28;20064;-64
2020/12/08 00:52:23;;;;;;;7.23;4.43;;;5.60;82.70;;;;;;5055920;28;20536;-64
2020/12/08 00:54:49;;;;;;;6.83;5.20;;;5.50;82.50;;;;;;5055919;28;20080;-64
2020/12/08 00:57:20;;;;;;;6.63;4.23;;;5.50;82.50;;;;;;5055476;28;20017;-64
2020/12/08 00:59:46;;;;;;;5.57;3.90;;;5.40;82.70;;;;;;5056010;28;20033;-64
2020/12/08 01:02:15;;;;;;;4.10;2.87;;;5.40;83.30;;;;;;5055811;28;20036;-64
2020/12/08 01:04:41;;;;;;;4.63;2.50;;;5.30;83.40;;;;;;5055732;28;20083;-64
2020/12/08 01:07:06;;;;;;;3.27;2.20;;;5.30;83.60;;;;;;5055842;28;20462;-64
2020/12/08 01:09:32;;;;;;;5.20;2.30;;;5.30;84.00;;;;;;5055670;28;20025;-65
2020/12/08 01:11:58;;;;;;;3.33;1.80;;;5.30;85.10;;;;;;5054357;28;20028;-64
2020/12/08 01:14:23;;;;;;;3.80;1.80;;;5.40;84.10;;;;;;5055413;28;20351;-64
2020/12/08 01:16:49;;;;;;;4.10;1.70;;;5.40;84.20;;;;;;5055706;28;20025;-64
2020/12/08 01:19:14;;;;;;;3.07;1.37;;;5.40;84.30;;;;;;5055279;28;20045;-64
2020/12/08 01:21:40;;;;;;;3.03;1.57;;;5.40;83.90;;;;;;5055830;28;20474;-64
2020/12/08 01:24:06;;;;;;;2.67;1.60;;;5.50;83.50;;;;;;5055555;28;20113;-64
2020/12/08 01:26:31;;;;;;;3.60;1.80;;;5.50;83.50;;;;;;5055302;28;20079;-64
2020/12/08 01:28:57;;;;;;;4.53;1.90;;;5.50;83.30;;;;;;5055274;28;20085;-64
2020/12/08 01:31:30;;;;;;;3.63;1.53;;;5.50;84.00;;;;;;5055282;28;20025;-64
2020/12/08 01:33:56;;;;;;;3.63;1.50;;;5.50;82.90;;;;;;5054978;28;20486;-64
2020/12/08 01:36:22;;;;;;;3.67;1.70;;;5.50;83.30;;;;;;5055438;28;20072;-64
2020/12/08 01:38:47;;;;;;;3.33;1.50;;;5.60;83.50;;;;;;5055135;28;20029;-64
2020/12/08 01:41:13;;;;;;;2.10;1.50;;;5.60;83.20;;;;;;5054891;28;20389;-65
2020/12/08 01:43:49;;;;;;;2.20;1.00;;;5.60;82.60;;;;;;5055180;28;20451;-64
2020/12/08 01:46:17;;;;;;;1.60;0.90;;;5.60;82.30;;;;;;5054839;28;20068;-64
2020/12/08 01:48:44;;;;;;;1.83;1.10;;;5.70;82.60;;;;;;5055086;28;20048;-64
2020/12/08 01:51:10;;;;;;;2.17;1.00;;;5.60;82.70;;;;;;5054996;28;20033;-64
2020/12/08 01:53:36;;;;;;;4.03;1.13;;;5.70;82.60;;;;;;5054737;28;20021;-64
2020/12/08 01:56:02;;;;;;;2.20;1.10;;;5.70;82.70;;;;;;5055160;28;20079;-64
2020/12/08 01:58:27;;;;;;;2.27;0.90;;;5.70;82.60;;;;;;5052983;28;20040;-65
2020/12/08 02:00:53;;;;;;;1.40;0.87;;;5.70;82.30;;;;;;5051918;28;20515;-64
2020/12/08 02:03:19;;;;;;;2.70;1.20;;;5.70;82.40;;;;;;5051897;28;20386;-64
2020/12/08 02:05:46;;;;;;;1.80;0.80;;;5.70;82.40;;;;;;5053343;28;20473;-64
2020/12/08 02:08:11;;;;;;;2.80;1.00;;;5.70;82.30;;;;;;5054295;28;20496;-64
2020/12/08 02:10:37;;;;;;;3.67;1.13;;;5.70;82.10;;;;;;5054505;28;20021;-64
2020/12/08 02:13:10;;;;;;;2.83;1.33;;;5.70;81.80;;;;;;5054048;28;20107;-64
2020/12/08 02:15:36;;;;;;;5.50;1.15;;;5.70;82.00;;;;;;5053971;28;20470;-64
2020/12/08 02:18:02;;;;;;;2.20;0.90;;;5.70;81.70;;;;;;5054209;28;20069;-64
2020/12/08 02:20:28;;;;;;;3.83;0.80;;;5.70;81.80;;;;;;5054062;28;20031;-64
2020/12/08 02:22:57;;;;;;;2.40;0.90;;;5.70;81.90;;;;;;5053712;28;20432;-64
2020/12/08 02:25:23;;;;;;;3.30;0.90;;;5.60;81.50;;;;;;5053902;28;20182;-64
2020/12/08 02:27:49;;;;;;;2.60;1.10;;;5.60;81.60;;;;;;5053723;28;20509;-64
2020/12/08 02:30:15;;;;;;;1.83;0.87;;;5.60;82.10;;;;;;5054056;28;20028;-63
2020/12/08 02:32:41;;;;;;;3.27;0.90;;;5.70;82.10;;;;;;5053867;28;20056;-64
2020/12/08 02:35:07;;;;;;;1.80;0.80;;;5.70;82.10;;;;;;5053340;28;20024;-64
2020/12/08 02:37:34;;;;;;;2.70;0.87;;;5.70;82.10;;;;;;5053897;28;20104;-64
2020/12/08 02:40:00;;;;;;;2.13;1.07;;;5.70;82.10;;;;;;5053788;28;20025;-64
2020/12/08 02:42:25;;;;;;;4.13;1.27;;;5.60;82.10;;;;;;5053563;28;20394;-64
2020/12/08 02:44:51;;;;;;;3.23;1.20;;;5.60;82.10;;;;;;5053343;28;20040;-64
2020/12/08 02:47:17;;;;;;;2.63;1.30;;;5.60;82.20;;;;;;5053876;28;20426;-64
2020/12/08 02:49:42;;;;;;;2.10;0.90;;;5.60;82.30;;;;;;5053592;28;20500;-64
2020/12/08 02:52:08;;;;;;;7.53;2.30;;;5.70;82.10;;;;;;5053345;28;20029;-64
2020/12/08 02:54:34;;;;;;;3.90;1.60;;;5.70;81.90;;;;;;5053708;28;20366;-64
2020/12/08 02:57:01;;;;;;;1.80;1.00;;;5.70;81.80;;;;;;5053700;28;20054;-64
2020/12/08 02:59:27;;;;;;;2.90;1.17;;;5.70;81.20;;;;;;5053594;28;20106;-64
2020/12/08 03:01:54;;;;;;;2.53;1.20;;;5.70;81.20;;;;;;5053601;28;20072;-64
2020/12/08 03:04:20;;;;;;;5.13;1.00;;;5.70;81.40;;;;;;5053192;28;20036;-64
2020/12/08 03:06:45;;;;;;;4.40;0.90;;;5.70;81.20;;;;;;5053345;28;20032;-64
2020/12/08 03:09:11;;;;;;;3.33;1.30;;;5.70;81.40;;;;;;5053359;28;20029;-64
2020/12/08 03:11:37;;;;;;;4.40;2.27;;;5.70;81.40;;;;;;5053249;28;20031;-64
2020/12/08 03:14:02;;;;;;;6.90;2.37;;;5.70;81.00;;;;;;5053029;28;20481;-64
2020/12/08 03:16:28;;;;;;;5.47;2.77;;;5.60;80.90;;;;;;5052818;28;20039;-64
2020/12/08 03:18:54;;;;;;;3.73;2.43;;;5.50;80.90;;;;;;5052841;28;20044;-64
2020/12/08 03:21:19;;;;;;;6.30;3.00;;;5.40;80.60;;;;;;5053014;28;20041;-63
2020/12/08 03:23:45;;;;;;;8.50;2.97;;;5.30;80.80;;;;;;5053302;28;20066;-64
2020/12/08 03:26:18;;;;;;;5.87;3.27;;;5.20;81.10;;;;;;5053033;28;20528;-64
2020/12/08 03:28:43;;;;;;;5.75;3.00;;;5.20;81.40;;;;;;5053212;28;20068;-64
2020/12/08 03:31:09;;;;;;;6.60;3.50;;;5.10;81.70;;;;;;5053028;28;20052;-64
2020/12/08 03:33:35;;;;;;;6.83;3.60;;;5.10;82.10;;;;;;5052366;28;20440;-64
2020/12/08 03:36:00;;;;;;;3.03;2.10;;;5.00;82.60;;;;;;5053111;28;20478;-64
2020/12/08 03:38:26;;;;;;;5.57;3.00;;;5.00;82.80;;;;;;5052874;28;20029;-64
2020/12/08 03:40:51;;;;;;;7.10;2.00;;;5.00;82.70;;;;;;5052834;28;20104;-64
2020/12/08 03:43:17;;;;;;;3.57;2.07;;;5.00;83.00;;;;;;5053034;28;20028;-64
2020/12/08 03:45:43;;;;;;;3.67;1.43;;;5.00;83.40;;;;;;5052787;28;20033;-64
2020/12/08 03:48:09;;;;;;;3.37;1.37;;;5.00;83.70;;;;;;5052829;28;20427;-64
2020/12/08 03:50:34;;;;;;;2.37;0.93;;;5.00;83.80;;;;;;5052746;28;20089;-64
2020/12/08 03:53:00;;;;;;;4.07;1.10;;;5.00;84.00;;;;;;5052825;28;20530;-64
2020/12/08 03:55:26;;;;;;;5.10;1.40;;;5.00;84.00;;;;;;5052681;28;20104;-64
2020/12/08 03:57:51;;;;;;;2.37;0.90;;;5.10;84.10;;;;;;5052742;28;20025;-63
2020/12/08 04:00:17;;;;;;;6.20;1.50;;;5.10;84.10;;;;;;5052879;28;20029;-64
2020/12/08 04:02:42;;;;;;;3.70;1.00;;;5.20;84.00;;;;;;5052687;28;20021;-64
2020/12/08 04:05:08;;;;;;;4.03;0.93;;;5.20;83.70;;;;;;5052887;28;20104;-64
2020/12/08 04:07:34;;;;;;;4.13;1.50;;;5.30;83.50;;;;;;5052672;28;20029;-64
2020/12/08 04:09:59;;;;;;;2.10;1.20;;;5.30;83.10;;;;;;5052712;28;20080;-64
2020/12/08 04:12:25;;;;;;;4.40;1.40;;;5.40;83.10;;;;;;5052393;28;20025;-64
2020/12/08 04:14:51;;;;;;;2.27;0.83;;;5.40;82.90;;;;;;5052826;28;20063;-64
2020/12/08 04:17:18;;;;;;;3.03;1.13;;;5.50;82.60;;;;;;5052324;28;20048;-64
2020/12/08 04:19:44;;;;;;;3.33;0.83;;;5.50;82.50;;;;;;5052743;28;20155;-64
2020/12/08 04:22:09;;;;;;;2.17;0.80;;;5.50;82.50;;;;;;5052762;28;20120;-64
2020/12/08 04:24:35;;;;;;;2.87;0.90;;;5.60;82.50;;;;;;5052380;28;20044;-64
2020/12/08 04:27:01;;;;;;;3.03;0.73;;;5.60;82.60;;;;;;5052610;28;20497;-64
2020/12/08 04:29:26;;;;;;;1.80;0.70;;;5.60;82.40;;;;;;5052499;28;20025;-64
2020/12/08 04:31:52;;;;;;;1.33;0.60;;;5.60;82.20;;;;;;5052680;28;20458;-64
2020/12/08 04:34:18;;;;;;;2.13;0.80;;;5.60;82.00;;;;;;5052358;28;20029;-64
2020/12/08 04:36:43;;;;;;;1.30;0.80;;;5.60;82.00;;;;;;5052337;28;20373;-64
2020/12/08 04:39:09;;;;;;;2.73;0.83;;;5.60;81.90;;;;;;5052453;28;20025;-63
2020/12/08 04:41:35;;;;;;;2.23;0.80;;;5.60;81.90;;;;;;5052643;28;20113;-64
2020/12/08 04:44:04;;;;;;;4.77;0.80;;;5.60;81.70;;;;;;5052405;28;20033;-64
2020/12/08 04:46:30;;;;;;;4.30;0.80;;;5.70;81.70;;;;;;5055592;28;20029;-64
2020/12/08 04:48:56;;;;;;;1.17;0.50;;;5.70;81.50;;;;;;5055953;28;20079;-64
2020/12/08 04:51:22;;;;;;;1.87;0.60;;;5.70;81.40;;;;;;5055834;28;20029;-64
2020/12/08 04:53:52;;;;;;;1.80;0.50;;;5.80;81.40;;;;;;5055937;28;20025;-64
2020/12/08 04:56:18;;;;;;;3.57;0.80;;;5.80;81.30;;;;;;5055736;28;20033;-64
2020/12/08 04:58:43;;;;;;;1.57;0.70;;;5.90;81.10;;;;;;5055750;28;20055;-64
2020/12/08 05:01:23;;;;;;;1.47;0.50;;;5.90;80.90;;;;;;5055625;28;20033;-64
2020/12/08 05:03:56;;;;;;;3.50;0.70;;;5.90;80.80;;;;;;5055690;28;20025;-64
2020/12/08 05:06:22;;;;;;;1.33;0.47;;;6.00;80.70;;;;;;5055827;28;20421;-64
2020/12/08 05:09:08;;;;;;;3.80;1.47;;;6.00;80.70;;;;;;5055834;28;20491;-64
2020/12/08 05:11:37;;;;;;;1.57;0.60;;;6.00;80.80;;;;;;5055444;28;20478;-64
2020/12/08 05:14:05;;;;;;;6.23;0.63;;;6.00;81.30;;;;;;5055485;28;20025;-63
2020/12/08 05:16:31;;;;;;;1.90;0.70;;;6.00;80.50;;;;;;5055236;28;20025;-64
2020/12/08 05:19:10;;;;;;;4.10;0.57;;;6.10;80.50;;;;;;5055338;28;20037;-64
2020/12/08 05:21:56;;;;;;;1.33;0.50;;;6.10;80.30;;;;;;5055506;28;20100;-64
2020/12/08 05:24:32;;;;;;;3.00;0.60;;;6.00;80.30;;;;;;5054961;28;20033;-64
2020/12/08 05:27:03;;;;;;;2.70;1.07;;;6.10;80.60;;;;;;5055300;28;20111;-64
2020/12/08 05:29:30;;;;;;;3.57;1.00;;;6.10;80.40;;;;;;5055103;28;20505;-64
2020/12/08 05:31:57;;;;;;;4.33;0.73;;;6.10;80.00;;;;;;5055091;28;20029;-64
2020/12/08 05:34:25;;;;;;;4.87;0.70;;;6.20;79.70;;;;;;5054764;28;20476;-64
2020/12/08 05:36:53;;;;;;;1.70;0.50;;;6.20;79.60;;;;;;5055049;28;20028;-64
2020/12/08 05:39:21;;;;;;;1.27;0.60;;;6.30;79.00;;;;;;5054973;28;20048;-64
2020/12/08 05:41:48;;;;;;;2.53;0.57;;;6.30;78.70;;;;;;5055201;28;20021;-64
2020/12/08 05:44:24;;;;;;;3.47;0.60;;;6.30;78.30;;;;;;5054820;28;20330;-64
2020/12/08 05:46:53;;;;;;;0.97;0.50;;;6.40;78.80;;;;;;5054882;28;20028;-64
2020/12/08 05:49:20;;;;;;;5.40;0.60;;;6.40;78.60;;;;;;5055027;28;20029;-64
2020/12/08 05:51:50;;;;;;;0.80;0.47;;;6.40;78.40;;;;;;5054893;28;20029;-64
2020/12/08 05:54:20;;;;;;;1.30;0.60;;;6.40;78.40;;;;;;5054526;28;20031;-63
2020/12/08 05:56:48;;;;;;;1.73;0.63;;;6.50;78.40;;;;;;5054264;28;20040;-64
2020/12/08 05:59:27;;;;;;;1.20;0.60;;;6.50;78.30;;;;;;5054674;28;20025;-64
2020/12/08 06:01:53;;;;;;;1.43;0.70;;;6.50;78.20;;;;;;5054655;28;20021;-64
2020/12/08 06:04:19;;;;;;;1.37;0.77;;;6.50;78.00;;;;;;5054623;28;20029;-64
2020/12/08 06:06:49;;;;;;;3.80;0.87;;;6.50;77.70;;;;;;5054607;28;20056;-64
2020/12/08 06:09:25;;;;;;;1.27;0.63;;;6.60;77.10;;;;;;5054425;28;20032;-63
2020/12/08 06:11:52;;;;;;;2.50;0.80;;;6.60;77.00;;;;;;5054482;28;20029;-64
2020/12/08 06:14:32;;;;;;;2.17;0.90;;;6.60;76.90;;;;;;5054561;28;20021;-64
2020/12/08 06:17:06;;;;;;;1.10;0.80;;;6.70;76.90;;;;;;5054158;28;20016;-64
2020/12/08 06:19:33;;;;;;;2.50;0.70;;;6.70;77.20;;;;;;5054595;28;20044;-65
2020/12/08 06:22:00;;;;;;;1.53;0.70;;;6.70;77.10;;;;;;5054194;28;20025;-63
2020/12/08 06:24:26;;;;;;;1.17;0.60;;;6.70;76.90;;;;;;5054135;28;20033;-64
2020/12/08 06:26:52;;;;;;;2.03;1.20;;;6.70;76.70;;;;;;5054217;28;20158;-64
2020/12/08 06:29:19;;;;;;;1.40;0.77;;;6.70;76.70;;;;;;5054169;28;20025;-63
2020/12/08 06:31:49;;;;;;;2.10;0.80;;;6.70;76.80;;;;;;5054083;28;20033;-63
2020/12/08 06:34:25;;;;;;;3.97;1.10;;;6.70;76.70;;;;;;5053817;28;20115;-63
2020/12/08 06:36:54;;;;;;;3.80;1.07;;;6.80;76.50;;;;;;5053990;28;20413;-63
2020/12/08 06:39:21;;;;;;;1.20;0.80;;;6.80;76.20;;;;;;5053723;28;20025;-63
2020/12/08 06:41:47;;;;;;;1.67;1.17;;;6.80;76.30;;;;;;5053771;28;20013;-63
2020/12/08 06:44:21;;;;;;;2.60;1.10;;;6.90;76.30;;;;;;5053760;28;20017;-63
2020/12/08 06:46:58;;;;;;;2.13;1.10;;;6.90;76.30;;;;;;5053950;28;20033;-64
2020/12/08 06:49:25;;;;;;;2.10;1.07;;;6.90;76.30;;;;;;5053676;28;20017;-63
2020/12/08 06:51:57;;;;;;;2.40;1.20;;;6.90;76.60;;;;;;5053749;28;20033;-64
2020/12/08 06:54:24;;;;;;;2.03;1.17;;;6.90;76.70;;;;;;5053700;28;20017;-63
2020/12/08 06:56:50;;;;;;;4.00;1.30;;;6.90;76.70;;;;;;5053671;28;20029;-63
2020/12/08 06:59:26;;;;;;;4.00;1.20;;;6.90;77.10;;;;;;5053645;28;20021;-64
2020/12/08 07:01:53;;;;;;;2.43;1.10;;;6.90;77.60;;;;;;5053549;28;20075;-64
2020/12/08 07:04:20;;;;;;;2.60;1.27;;;6.90;77.90;;;;;;5053216;28;20021;-63
2020/12/08 07:06:46;;;;;;;3.03;1.17;;;6.90;78.10;;;;;;5053342;28;20068;-63
2020/12/08 07:09:12;;;;;;;4.17;1.50;;;6.90;78.40;;;;;;5052614;28;20078;-63
2020/12/08 07:11:38;;;;;;;3.80;1.53;;;6.90;78.40;;;;;;5053482;28;20056;-63
2020/12/08 07:14:07;;;;;;;3.70;1.50;;;6.90;78.60;;;;;;5053432;28;20053;-64
2020/12/08 07:16:34;;;;;;;3.53;1.90;;;6.90;78.80;;;;;;5053107;28;20033;-64
2020/12/08 07:19:01;;;;;;;4.13;1.93;;;6.90;78.70;;;;;;5053041;28;20047;-67
2020/12/08 07:21:27;;;;;;;3.57;1.90;;;6.90;78.80;;;;;;5053331;28;20095;-63
2020/12/08 07:23:55;;;;;;;4.33;2.07;;;6.90;78.90;;;;;;5053048;28;20439;-66
2020/12/08 07:26:23;;;;;;;3.03;1.97;;;6.90;78.80;;;;;;5053117;28;20133;-66
2020/12/08 07:28:49;;;;;;;3.27;1.60;;;6.90;79.00;;;;;;5052844;28;20474;-66
2020/12/08 07:31:19;;;;;;;3.57;1.70;;;7.00;78.90;;;;;;5053103;28;20033;-65
2020/12/08 07:33:44;;;;;;;5.63;2.13;;;6.90;78.50;;;;;;5052967;28;20046;-65
2020/12/08 07:36:23;;;;;;;5.00;1.67;;;7.00;78.40;;;;;;5052760;28;20033;-65
2020/12/08 07:38:52;;;;;;;3.50;1.77;;;7.00;78.40;;;;;;5052905;28;20070;-64
2020/12/08 07:41:19;;;;;;;2.57;1.57;;;7.00;78.50;;;;;;5053012;28;20066;-65
2020/12/08 07:43:44;;;;;;;6.10;2.10;;;7.00;78.80;;;;;;5052655;28;20022;-63
2020/12/08 07:46:10;;;;;;;3.53;1.90;;;7.00;79.10;;;;;;5052824;28;20048;-64
2020/12/08 07:48:36;;;;;;;5.07;2.00;;;7.00;79.60;;;;;;5052995;28;20446;-64
2020/12/08 07:51:02;;;;;;;5.77;2.40;;;7.00;79.90;;;;;;5051015;28;20059;-64
2020/12/08 07:53:35;;;;;;;6.83;2.70;;;7.00;80.10;;;;;;5052118;28;20036;-64
2020/12/08 07:56:01;;;;;;;4.10;2.33;;;7.00;80.10;;;;;;5052320;28;20112;-64
2020/12/08 07:58:28;;;;;;;3.70;2.37;;;7.00;80.60;;;;;;5052158;28;20557;-64
2020/12/08 08:00:53;;;;;;;4.77;2.37;;;7.00;81.40;;;;;;5052048;28;20025;-64
2020/12/08 08:03:19;;;;;;;5.70;2.60;;;7.00;81.70;;;;;;5052237;28;20027;-64
2020/12/08 08:05:44;;;;;;;3.17;2.40;;;7.00;82.30;;;;;;5050756;28;20037;-64
2020/12/08 08:08:10;;;;;;;5.27;2.37;;;7.00;82.60;;;;;;5052244;28;20025;-64
2020/12/08 08:10:36;;;;;;;3.30;2.23;;;7.00;82.90;;;;;;5051319;28;20053;-64
2020/12/08 08:13:01;;;;;;;3.93;2.07;;;7.00;82.80;;;;;;5052253;28;20543;-64
2020/12/08 08:15:27;;;;;;;6.10;2.20;;;7.00;82.90;;;;;;5050866;28;20017;-64
2020/12/08 08:17:53;;;;;;;2.87;2.00;;;7.00;83.20;;;;;;5052182;28;20053;-64
2020/12/08 08:20:18;;;;;;;5.20;1.77;;;7.10;83.10;;;;;;5053609;28;20172;-64
2020/12/08 08:22:44;;;;;;;6.20;2.30;;;7.00;82.80;;;;;;5055819;28;20082;-64
2020/12/08 08:25:10;;;;;;;3.67;1.90;;;7.10;82.60;;;;;;5055403;28;20100;-64
2020/12/08 08:27:35;;;;;;;3.73;2.37;;;7.10;82.60;;;;;;5056495;28;20024;-64
2020/12/08 08:30:02;;;;;;;3.80;2.17;;;7.00;83.10;;;;;;5054865;28;20036;-63
2020/12/08 08:32:28;;;;;;;6.83;2.10;;;7.10;83.00;;;;;;5053893;28;20052;-62
2020/12/08 08:34:53;;;;;;;51.87;25.03;;;7.10;83.60;;;;;;5053601;28;20029;-64
2020/12/08 08:37:19;;;;;;;48.57;27.43;;;7.10;82.90;;;;;;5054975;28;20024;-65
2020/12/08 08:39:45;;;;;;;11.33;5.17;;;7.10;83.20;;;;;;5055898;28;20028;-66
2020/12/08 08:42:10;;;;;;;14.77;9.70;;;7.10;83.40;;;;;;5055935;28;20025;-64
2020/12/08 08:44:36;;;;;;;8.10;4.80;;;7.10;83.20;;;;;;5055661;28;20403;-65
2020/12/08 08:47:02;;;;;;;9.57;5.53;;;7.10;84.20;;;;;;5055868;28;20025;-63
2020/12/08 08:49:27;;;;;;;9.57;7.07;;;7.10;84.10;;;;;;5055749;28;20025;-64
2020/12/08 08:51:53;;;;;;;13.13;10.60;;;7.10;83.80;;;;;;5055397;28;20056;-62
2020/12/08 08:54:19;;;;;;;11.97;8.50;;;7.10;84.00;;;;;;5053582;28;20029;-64
2020/12/08 08:56:45;;;;;;;12.63;7.50;;;7.10;83.90;;;;;;5053353;28;20027;-64
2020/12/08 08:59:11;;;;;;;13.40;8.60;;;7.10;84.40;;;;;;5055056;28;20394;-63
2020/12/08 09:01:37;;;;;;;6.00;4.13;;;7.10;84.40;;;;;;5054068;28;20363;-65
2020/12/08 09:04:04;;;;;;;3.87;2.30;;;7.20;84.30;;;;;;5055117;28;20494;-63
2020/12/08 09:06:30;;;;;;;3.57;2.07;;;7.10;84.40;;;;;;5055025;28;20421;-64
2020/12/08 09:08:59;;;;;;;6.37;2.03;;;7.20;84.50;;;;;;5055076;28;20025;-65
2020/12/08 09:11:26;;;;;;;2.67;1.43;;;7.20;84.70;;;;;;5055194;28;20104;-65
2020/12/08 09:13:52;;;;;;;6.13;2.30;;;7.10;84.50;;;;;;5055125;28;20039;-66
2020/12/08 09:16:20;;;;;;;3.77;1.83;;;7.20;84.60;;;;;;5054558;28;20029;-65
2020/12/08 09:18:45;;;;;;;4.73;2.70;;;7.10;85.20;;;;;;5054687;28;20116;-64
2020/12/08 09:21:11;;;;;;;5.63;2.83;;;7.10;85.40;;;;;;5055327;28;20053;-63
2020/12/08 09:23:37;;;;;;;6.43;3.60;;;7.10;85.50;;;;;;5054828;28;20021;-66
2020/12/08 09:26:02;;;;;;;17.30;9.83;;;7.10;85.70;;;;;;5054727;28;20036;-63
2020/12/08 09:28:28;;;;;;;15.47;8.40;;;7.10;85.90;;;;;;5054805;28;20023;-65
2020/12/08 09:30:54;;;;;;;6.20;3.53;;;7.10;86.20;;;;;;5053914;28;20021;-62
2020/12/08 09:33:20;;;;;;;4.77;3.27;;;7.10;86.00;;;;;;5054106;28;20059;-66
2020/12/08 09:35:45;;;;;;;4.90;3.03;;;7.10;85.80;;;;;;5054539;28;20028;-67
2020/12/08 09:38:11;;;;;;;7.20;3.23;;;7.10;85.90;;;;;;5054392;28;20025;-66
2020/12/08 09:40:37;;;;;;;6.27;4.03;;;7.10;86.40;;;;;;5054462;28;20107;-66
2020/12/08 09:43:04;;;;;;;5.00;2.90;;;7.10;86.80;;;;;;5054218;28;20021;-66
2020/12/08 09:45:30;;;;;;;5.67;3.87;;;7.10;87.30;;;;;;5054489;28;20393;-66
2020/12/08 09:47:56;;;;;;;9.67;7.33;;;7.10;87.20;;;;;;5054579;28;20028;-64
2020/12/08 09:50:22;;;;;;;7.60;5.97;;;7.10;87.30;;;;;;5054779;28;20033;-64
2020/12/08 09:52:48;;;;;;;5.57;4.27;;;7.10;87.00;;;;;;5054271;28;20063;-66
2020/12/08 09:55:14;;;;;;;5.83;3.10;;;7.10;86.70;;;;;;5054266;28;20027;-64
2020/12/08 09:57:39;;;;;;;4.03;2.40;;;7.10;86.60;;;;;;5054296;28;20025;-65
2020/12/08 10:00:07;;;;;;;3.87;1.57;;;7.10;86.80;;;;;;5054306;28;20437;-63
2020/12/08 10:02:33;;;;;;;1.77;0.83;;;7.10;86.40;;;;;;5053840;28;20064;-65
2020/12/08 10:04:59;;;;;;;2.07;1.17;;;7.20;86.50;;;;;;5053979;28;20083;-64
2020/12/08 10:07:25;;;;;;;2.60;1.60;;;7.20;86.20;;;;;;5054066;28;20037;-66
2020/12/08 10:09:51;;;;;;;3.30;2.40;;;7.10;85.90;;;;;;5053711;28;20027;-63
2020/12/08 10:12:18;;;;;;;2.20;1.43;;;7.10;85.70;;;;;;5053864;28;20029;-66
2020/12/08 10:14:44;;;;;;;2.50;1.40;;;7.10;85.50;;;;;;5053757;28;20021;-64
2020/12/08 10:17:17;;;;;;;2.97;0.93;;;7.10;85.80;;;;;;5053859;28;20470;-65
2020/12/08 10:19:43;;;;;;;1.67;0.80;;;7.10;85.80;;;;;;5053445;28;20520;-63
2020/12/08 10:22:11;;;;;;;0.97;0.70;;;7.10;85.70;;;;;;5053715;28;20056;-66
2020/12/08 10:24:37;;;;;;;1.57;0.70;;;7.00;86.00;;;;;;5053860;28;20098;-63
2020/12/08 10:27:03;;;;;;;1.83;0.70;;;7.00;85.80;;;;;;5053614;28;20505;-63
2020/12/08 10:29:29;;;;;;;1.23;0.80;;;7.00;85.90;;;;;;5053822;28;20025;-65
2020/12/08 10:31:55;;;;;;;2.90;0.90;;;7.00;86.00;;;;;;5053424;28;20037;-66
2020/12/08 10:34:21;;;;;;;1.90;1.20;;;7.00;85.80;;;;;;5053596;28;20119;-66
2020/12/08 10:36:47;;;;;;;1.93;1.33;;;7.00;85.90;;;;;;5053604;28;20089;-65
2020/12/08 10:39:13;;;;;;;1.10;0.70;;;7.00;85.90;;;;;;5053236;28;20028;-63
2020/12/08 10:41:40;;;;;;;1.03;0.60;;;7.00;86.00;;;;;;5053280;28;20032;-66
2020/12/08 10:44:06;;;;;;;1.97;1.10;;;7.00;86.20;;;;;;5053222;28;20025;-66
2020/12/08 10:46:38;;;;;;;1.87;1.47;;;7.00;86.10;;;;;;5052942;28;20485;-66
2020/12/08 10:49:07;;;;;;;2.40;1.20;;;7.00;86.20;;;;;;5052602;28;20024;-66
2020/12/08 10:51:33;;;;;;;4.80;0.73;;;7.00;86.20;;;;;;5053181;28;20557;-65
2020/12/08 10:53:59;;;;;;;1.47;0.83;;;7.00;86.20;;;;;;5053131;28;20055;-64
2020/12/08 10:56:25;;;;;;;1.73;0.93;;;7.00;86.60;;;;;;5052981;28;20028;-66
2020/12/08 10:58:52;;;;;;;2.23;0.80;;;7.10;86.40;;;;;;5053318;28;20029;-64
2020/12/08 11:01:23;;;;;;;2.03;0.70;;;7.10;86.70;;;;;;5052998;28;20028;-63
2020/12/08 11:03:49;;;;;;;2.30;0.93;;;7.10;86.60;;;;;;5052956;28;20025;-66
2020/12/08 11:06:22;;;;;;;2.77;0.67;;;7.10;86.70;;;;;;5052785;28;20108;-64
2020/12/08 11:08:48;;;;;;;;;;;7.10;86.90;;;;;;5053253;28;20031;-66
2020/12/08 11:11:20;;;;;;;0.90;0.70;;;7.10;86.60;;;;;;5053015;28;19905;-63
2020/12/08 11:13:45;;;;;;;1.50;1.00;;;7.10;86.50;;;;;;5052928;28;20029;-63
2020/12/08 11:16:11;;;;;;;1.40;0.90;;;7.10;86.50;;;;;;5052491;28;20428;-64
2020/12/08 11:18:37;;;;;;;1.27;0.80;;;7.20;86.60;;;;;;5051245;28;20563;-66
2020/12/08 11:21:03;;;;;;;1.57;0.90;;;7.20;86.80;;;;;;5052746;28;20413;-66
2020/12/08 11:23:28;;;;;;;4.63;1.20;;;7.20;86.80;;;;;;5053091;28;20029;-66
2020/12/08 11:25:54;;;;;;;1.57;0.97;;;7.20;86.90;;;;;;5052454;28;20079;-66
2020/12/08 11:28:20;;;;;;;1.73;1.13;;;7.20;87.20;;;;;;5052566;28;20029;-64
2020/12/08 11:30:45;;;;;;;1.63;1.00;;;7.20;87.30;;;;;;5052162;28;20029;-65
2020/12/08 11:33:11;;;;;;;3.43;1.30;;;7.20;88.00;;;;;;5052403;28;20028;-63
2020/12/08 11:35:37;;;;;;;3.40;1.20;;;7.20;87.50;;;;;;5052539;28;20082;-63
2020/12/08 11:38:02;;;;;;;13.00;8.97;;;7.20;87.50;;;;;;5052584;28;20025;-64
2020/12/08 11:40:28;;;;;;;11.93;8.67;;;7.20;87.20;;;;;;5052586;28;20033;-63
2020/12/08 11:42:54;;;;;;;8.63;6.23;;;7.30;87.10;;;;;;5052243;28;20021;-64
2020/12/08 11:45:19;;;;;;;5.17;3.90;;;7.30;86.70;;;;;;5052104;28;20033;-66
2020/12/08 11:47:45;;;;;;;5.43;3.70;;;7.30;86.60;;;;;;5052745;28;20040;-66
2020/12/08 11:50:11;;;;;;;8.57;6.83;;;7.30;86.60;;;;;;5052626;28;20032;-63
2020/12/08 11:52:37;;;;;;;13.03;8.47;;;7.30;87.00;;;;;;5052291;28;20028;-66
2020/12/08 11:55:06;;;;;;;6.57;4.47;;;7.30;87.10;;;;;;5053686;28;20021;-62
2020/12/08 11:57:33;;;;;;;4.80;2.47;;;7.30;87.00;;;;;;5056505;28;20044;-64
2020/12/08 11:59:59;;;;;;;10.37;7.80;;;7.30;87.90;;;;;;5056292;28;20071;-65
2020/12/08 12:02:25;;;;;;;4.87;3.40;;;7.30;87.20;;;;;;5056594;28;20021;-65
2020/12/08 12:04:50;;;;;;;5.10;3.60;;;7.30;87.30;;;;;;5056501;28;20035;-65
2020/12/08 12:07:16;;;;;;;13.37;9.97;;;7.40;87.40;;;;;;5056313;28;20033;-66
2020/12/08 12:09:42;;;;;;;3.93;2.63;;;7.30;87.30;;;;;;5056565;28;20465;-63
2020/12/08 12:12:07;;;;;;;3.07;1.60;;;7.40;87.80;;;;;;5056850;28;20040;-63
2020/12/08 12:14:33;;;;;;;3.40;1.80;;;7.40;87.80;;;;;;5056227;28;20021;-63
2020/12/08 12:16:59;;;;;;;4.17;3.20;;;7.40;88.00;;;;;;5056324;28;20108;-63
2020/12/08 12:19:24;;;;;;;3.80;2.60;;;7.40;87.90;;;;;;5054549;28;20033;-65
2020/12/08 12:21:50;;;;;;;3.80;2.40;;;7.40;87.90;;;;;;5056192;28;20082;-66
2020/12/08 12:24:16;;;;;;;2.87;2.20;;;7.40;88.00;;;;;;5056186;28;20021;-66
2020/12/08 12:26:41;;;;;;;3.17;1.80;;;7.40;87.80;;;;;;5053561;28;20041;-63
2020/12/08 12:29:07;;;;;;;2.97;1.80;;;7.40;87.70;;;;;;5053002;28;20064;-63
2020/12/08 12:31:33;;;;;;;2.20;1.63;;;7.50;87.60;;;;;;5053048;28;20090;-62
2020/12/08 12:33:58;;;;;;;2.33;1.57;;;7.50;87.90;;;;;;5055398;28;20017;-62
2020/12/08 12:36:24;;;;;;;0.97;0.60;;;7.50;88.20;;;;;;5055448;28;20170;-66
2020/12/08 12:38:50;;;;;;;3.13;2.00;;;7.50;87.60;;;;;;5055882;28;20013;-63
2020/12/08 12:41:27;;;;;;;0.90;0.63;;;7.50;86.80;;;;;;5055318;28;20029;-61
2020/12/08 12:43:52;;;;;;;0.93;0.60;;;7.60;86.20;;;;;;5055495;28;20017;-62
2020/12/08 12:46:18;;;;;;;1.20;0.63;;;7.60;86.20;;;;;;5055109;28;20037;-62
2020/12/08 12:48:45;;;;;;;2.03;0.80;;;7.60;86.10;;;;;;5055064;28;20381;-64
2020/12/08 12:51:11;;;;;;;2.97;1.50;;;7.60;86.20;;;;;;5055742;28;20079;-64
2020/12/08 12:53:37;;;;;;;1.40;0.90;;;7.60;86.20;;;;;;5055603;28;20429;-61
2020/12/08 12:56:03;;;;;;;1.67;0.67;;;7.60;86.30;;;;;;5054704;28;20167;-65